Disclaimer

Please do not use the information listed here in-flight or in-navigation, as they are not provided to us by the airports but are provided by volunteers, so they might be outdated.

Search


Regions


Airport information page

Radio informations:
JUAREZ TWR - 118.9 MHz
JUAREZ APP - 119.9 MHz

Airport informations:
Latitude: 31° 38' 10.08" N
Longitude: 106° 25' 43.20" W
Elevation: 3904 feet - 1190 meters
Operating hours: Remarks
Operating agency: Civil government, landing fees and diplomatic clearance may be required
Timezone: UTC-7(-6DT) - First Sunday in April to the last Saturday in October
Fuel: Jet A1, without icing nhibitor.

100/130 MIL Spec, low lead, aviation gasoline (BLUE)

Runway information:
03/21 - 8858 x 148 feet< - >2700 x 45 meters
14/32 - 5741 x 98 feet< - >1750 x 30 meters

Recent METARs:
MMCS 131840Z 00000KT 10SM SKC 04/M12 A3061
MMCS 131946Z 07005KT 10SM SKC 05/M13 A3057
MMCS 131946Z 07005KT 10SM SKC 05/M13 A3057

Airport on the map: